sensor_id;sensor_type;location;lat;lon;timestamp;temperature;humidity
420;DHT22;42600;54.408;13.016;2023-04-25T00:02:05;9.20;92.70
420;DHT22;42600;54.408;13.016;2023-04-25T00:04:32;9.20;92.70
420;DHT22;42600;54.408;13.016;2023-04-25T00:06:59;9.10;92.70
420;DHT22;42600;54.408;13.016;2023-04-25T00:09:29;9.10;92.70
420;DHT22;42600;54.408;13.016;2023-04-25T00:11:56;9.20;92.70
420;DHT22;42600;54.408;13.016;2023-04-25T00:14:22;9.20;92.70
420;DHT22;42600;54.408;13.016;2023-04-25T00:16:49;9.20;92.70
420;DHT22;42600;54.408;13.016;2023-04-25T00:19:17;9.10;92.70
420;DHT22;42600;54.408;13.016;2023-04-25T00:21:43;9.10;92.70
420;DHT22;42600;54.408;13.016;2023-04-25T00:24:11;9.10;92.70
420;DHT22;42600;54.408;13.016;2023-04-25T00:26:39;9.10;92.70
420;DHT22;42600;54.408;13.016;2023-04-25T00:29:06;9.10;92.70
420;DHT22;42600;54.408;13.016;2023-04-25T00:31:32;9.10;92.70
420;DHT22;42600;54.408;13.016;2023-04-25T00:33:59;9.10;92.70
420;DHT22;42600;54.408;13.016;2023-04-25T00:36:26;9.10;92.70
420;DHT22;42600;54.408;13.016;2023-04-25T00:38:53;9.10;92.70
420;DHT22;42600;54.408;13.016;2023-04-25T00:41:19;9.00;92.70
420;DHT22;42600;54.408;13.016;2023-04-25T00:43:48;9.10;92.70
420;DHT22;42600;54.408;13.016;2023-04-25T00:46:14;9.10;92.70
420;DHT22;42600;54.408;13.016;2023-04-25T00:48:41;9.00;92.70
420;DHT22;42600;54.408;13.016;2023-04-25T00:51:07;9.00;92.70
420;DHT22;42600;54.408;13.016;2023-04-25T00:53:35;9.00;92.70
420;DHT22;42600;54.408;13.016;2023-04-25T00:56:02;9.00;92.70
420;DHT22;42600;54.408;13.016;2023-04-25T00:58:29;9.00;92.70
420;DHT22;42600;54.408;13.016;2023-04-25T01:00:57;9.00;92.70
420;DHT22;42600;54.408;13.016;2023-04-25T01:03:24;9.00;92.70
420;DHT22;42600;54.408;13.016;2023-04-25T01:05:54;9.00;92.70
420;DHT22;42600;54.408;13.016;2023-04-25T01:08:21;9.00;92.70
420;DHT22;42600;54.408;13.016;2023-04-25T01:10:50;9.00;92.70
420;DHT22;42600;54.408;13.016;2023-04-25T01:13:16;9.00;92.70
420;DHT22;42600;54.408;13.016;2023-04-25T01:15:43;9.00;92.70
420;DHT22;42600;54.408;13.016;2023-04-25T01:18:11;9.00;92.70
420;DHT22;42600;54.408;13.016;2023-04-25T01:20:38;9.00;92.70
420;DHT22;42600;54.408;13.016;2023-04-25T01:23:08;8.90;92.70
420;DHT22;42600;54.408;13.016;2023-04-25T01:25:35;8.90;92.70
420;DHT22;42600;54.408;13.016;2023-04-25T01:28:02;8.90;92.70
420;DHT22;42600;54.408;13.016;2023-04-25T01:30:29;9.00;92.70
420;DHT22;42600;54.408;13.016;2023-04-25T01:32:56;8.90;92.70
420;DHT22;42600;54.408;13.016;2023-04-25T01:35:23;8.90;92.70
420;DHT22;42600;54.408;13.016;2023-04-25T01:37:51;8.90;92.70
420;DHT22;42600;54.408;13.016;2023-04-25T01:40:20;8.90;92.70
420;DHT22;42600;54.408;13.016;2023-04-25T01:42:47;8.90;92.70
420;DHT22;42600;54.408;13.016;2023-04-25T01:45:14;8.90;92.70
420;DHT22;42600;54.408;13.016;2023-04-25T01:47:40;8.90;92.70
420;DHT22;42600;54.408;13.016;2023-04-25T01:50:09;8.90;92.70
420;DHT22;42600;54.408;13.016;2023-04-25T01:52:36;8.90;92.70
420;DHT22;42600;54.408;13.016;2023-04-25T01:55:03;8.90;92.70
420;DHT22;42600;54.408;13.016;2023-04-25T01:57:31;8.90;92.70
420;DHT22;42600;54.408;13.016;2023-04-25T01:59:59;8.90;92.70
420;DHT22;42600;54.408;13.016;2023-04-25T02:02:26;8.90;92.70
420;DHT22;42600;54.408;13.016;2023-04-25T02:04:53;8.90;92.70
420;DHT22;42600;54.408;13.016;2023-04-25T02:07:19;8.90;92.70
420;DHT22;42600;54.408;13.016;2023-04-25T02:09:46;8.90;92.70
420;DHT22;42600;54.408;13.016;2023-04-25T02:12:13;8.90;92.70
420;DHT22;42600;54.408;13.016;2023-04-25T02:14:41;8.90;92.70
420;DHT22;42600;54.408;13.016;2023-04-25T02:17:07;8.80;92.70
420;DHT22;42600;54.408;13.016;2023-04-25T02:19:34;8.80;92.70
420;DHT22;42600;54.408;13.016;2023-04-25T02:22:00;8.80;92.70
420;DHT22;42600;54.408;13.016;2023-04-25T02:24:27;8.80;92.70
420;DHT22;42600;54.408;13.016;2023-04-25T02:26:54;8.80;92.70
420;DHT22;42600;54.408;13.016;2023-04-25T02:29:21;8.80;92.70
420;DHT22;42600;54.408;13.016;2023-04-25T02:31:49;8.80;92.70
420;DHT22;42600;54.408;13.016;2023-04-25T02:34:16;8.80;92.70
420;DHT22;42600;54.408;13.016;2023-04-25T02:36:42;8.80;92.70
420;DHT22;42600;54.408;13.016;2023-04-25T02:39:09;8.80;92.70
420;DHT22;42600;54.408;13.016;2023-04-25T02:41:36;8.80;92.70
420;DHT22;42600;54.408;13.016;2023-04-25T02:44:02;8.80;92.70
420;DHT22;42600;54.408;13.016;2023-04-25T02:46:29;8.70;92.70
420;DHT22;42600;54.408;13.016;2023-04-25T02:48:57;8.70;92.70
420;DHT22;42600;54.408;13.016;2023-04-25T02:51:23;8.70;92.70
420;DHT22;42600;54.408;13.016;2023-04-25T02:53:50;8.70;92.70
420;DHT22;42600;54.408;13.016;2023-04-25T02:56:16;8.60;92.70
420;DHT22;42600;54.408;13.016;2023-04-25T02:58:43;8.60;92.70
420;DHT22;42600;54.408;13.016;2023-04-25T03:01:10;8.60;92.70
420;DHT22;42600;54.408;13.016;2023-04-25T03:03:37;8.60;92.70
420;DHT22;42600;54.408;13.016;2023-04-25T03:06:05;8.60;92.70
420;DHT22;42600;54.408;13.016;2023-04-25T03:08:31;8.50;92.70
420;DHT22;42600;54.408;13.016;2023-04-25T03:10:59;8.50;92.70
420;DHT22;42600;54.408;13.016;2023-04-25T03:13:26;8.50;92.70
420;DHT22;42600;54.408;13.016;2023-04-25T03:15:55;8.50;92.70
420;DHT22;42600;54.408;13.016;2023-04-25T03:18:21;8.50;92.70
420;DHT22;42600;54.408;13.016;2023-04-25T03:20:48;8.50;92.70
420;DHT22;42600;54.408;13.016;2023-04-25T03:23:16;8.50;92.70
420;DHT22;42600;54.408;13.016;2023-04-25T03:25:42;8.40;92.70
420;DHT22;42600;54.408;13.016;2023-04-25T03:28:09;8.40;92.70
420;DHT22;42600;54.408;13.016;2023-04-25T03:30:35;8.40;92.70
420;DHT22;42600;54.408;13.016;2023-04-25T03:33:02;8.40;92.70
420;DHT22;42600;54.408;13.016;2023-04-25T03:35:29;8.40;92.70
420;DHT22;42600;54.408;13.016;2023-04-25T03:37:55;8.40;92.70
420;DHT22;42600;54.408;13.016;2023-04-25T03:40:23;8.40;92.70
420;DHT22;42600;54.408;13.016;2023-04-25T03:42:50;8.40;92.70
420;DHT22;42600;54.408;13.016;2023-04-25T03:45:16;8.30;92.70
420;DHT22;42600;54.408;13.016;2023-04-25T03:47:43;8.30;92.70
420;DHT22;42600;54.408;13.016;2023-04-25T03:50:10;8.30;92.70
420;DHT22;42600;54.408;13.016;2023-04-25T03:52:36;8.30;92.70
420;DHT22;42600;54.408;13.016;2023-04-25T03:55:04;8.30;92.70
420;DHT22;42600;54.408;13.016;2023-04-25T03:57:32;8.30;92.70
420;DHT22;42600;54.408;13.016;2023-04-25T03:59:58;8.20;92.60
420;DHT22;42600;54.408;13.016;2023-04-25T04:02:25;8.20;92.40
420;DHT22;42600;54.408;13.016;2023-04-25T04:04:51;8.20;92.30
420;DHT22;42600;54.408;13.016;2023-04-25T04:07:18;8.20;92.40
420;DHT22;42600;54.408;13.016;2023-04-25T04:09:45;8.10;92.50
420;DHT22;42600;54.408;13.016;2023-04-25T04:12:11;8.10;92.30
420;DHT22;42600;54.408;13.016;2023-04-25T04:14:40;8.10;92.50
420;DHT22;42600;54.408;13.016;2023-04-25T04:17:06;8.10;92.50
420;DHT22;42600;54.408;13.016;2023-04-25T04:19:33;8.10;92.50
420;DHT22;42600;54.408;13.016;2023-04-25T04:22:00;8.10;92.60
420;DHT22;42600;54.408;13.016;2023-04-25T04:24:26;8.10;92.20
420;DHT22;42600;54.408;13.016;2023-04-25T04:26:53;8.00;91.70
420;DHT22;42600;54.408;13.016;2023-04-25T04:29:20;8.10;91.80
420;DHT22;42600;54.408;13.016;2023-04-25T04:31:49;8.10;92.20
420;DHT22;42600;54.408;13.016;2023-04-25T04:34:16;8.10;92.40
420;DHT22;42600;54.408;13.016;2023-04-25T04:36:43;8.00;91.60
420;DHT22;42600;54.408;13.016;2023-04-25T04:39:10;8.00;91.20
420;DHT22;42600;54.408;13.016;2023-04-25T04:41:37;8.00;91.40
420;DHT22;42600;54.408;13.016;2023-04-25T04:44:03;8.00;91.60
420;DHT22;42600;54.408;13.016;2023-04-25T04:46:31;8.00;91.60
420;DHT22;42600;54.408;13.016;2023-04-25T04:49:04;8.00;91.60
420;DHT22;42600;54.408;13.016;2023-04-25T04:51:31;8.00;91.60
420;DHT22;42600;54.408;13.016;2023-04-25T04:53:58;7.90;91.50
420;DHT22;42600;54.408;13.016;2023-04-25T04:56:27;7.90;91.60
420;DHT22;42600;54.408;13.016;2023-04-25T04:58:54;7.90;91.60
420;DHT22;42600;54.408;13.016;2023-04-25T05:01:21;7.90;91.70
420;DHT22;42600;54.408;13.016;2023-04-25T05:03:47;7.90;91.70
420;DHT22;42600;54.408;13.016;2023-04-25T05:06:15;7.90;91.70
420;DHT22;42600;54.408;13.016;2023-04-25T05:08:42;7.90;91.60
420;DHT22;42600;54.408;13.016;2023-04-25T05:11:09;7.80;91.60
420;DHT22;42600;54.408;13.016;2023-04-25T05:13:35;7.90;91.40
420;DHT22;42600;54.408;13.016;2023-04-25T05:16:02;7.90;91.30
420;DHT22;42600;54.408;13.016;2023-04-25T05:18:29;8.00;91.00
420;DHT22;42600;54.408;13.016;2023-04-25T05:20:55;8.00;90.80
420;DHT22;42600;54.408;13.016;2023-04-25T05:23:23;8.10;90.70
420;DHT22;42600;54.408;13.016;2023-04-25T05:25:50;8.20;90.90
420;DHT22;42600;54.408;13.016;2023-04-25T05:28:16;8.30;90.60
420;DHT22;42600;54.408;13.016;2023-04-25T05:30:43;8.30;90.80
420;DHT22;42600;54.408;13.016;2023-04-25T05:33:09;8.30;90.90
420;DHT22;42600;54.408;13.016;2023-04-25T05:35:36;8.30;90.90
420;DHT22;42600;54.408;13.016;2023-04-25T05:38:03;8.30;90.80
420;DHT22;42600;54.408;13.016;2023-04-25T05:40:31;8.20;90.80
420;DHT22;42600;54.408;13.016;2023-04-25T05:42:57;8.20;90.50
420;DHT22;42600;54.408;13.016;2023-04-25T05:45:24;8.30;90.10
420;DHT22;42600;54.408;13.016;2023-04-25T05:47:50;8.30;89.30
420;DHT22;42600;54.408;13.016;2023-04-25T05:50:17;8.40;89.00
420;DHT22;42600;54.408;13.016;2023-04-25T05:52:43;8.40;88.40
420;DHT22;42600;54.408;13.016;2023-04-25T05:55:10;8.30;87.40
420;DHT22;42600;54.408;13.016;2023-04-25T05:57:38;8.20;87.80
420;DHT22;42600;54.408;13.016;2023-04-25T06:00:07;8.30;88.60
420;DHT22;42600;54.408;13.016;2023-04-25T06:02:34;8.30;89.10
420;DHT22;42600;54.408;13.016;2023-04-25T06:05:01;8.30;89.60
420;DHT22;42600;54.408;13.016;2023-04-25T06:07:29;8.20;89.30
420;DHT22;42600;54.408;13.016;2023-04-25T06:09:56;8.20;89.50
420;DHT22;42600;54.408;13.016;2023-04-25T06:12:22;8.10;89.20
420;DHT22;42600;54.408;13.016;2023-04-25T06:14:50;8.10;89.10
420;DHT22;42600;54.408;13.016;2023-04-25T06:17:17;8.10;89.30
420;DHT22;42600;54.408;13.016;2023-04-25T06:19:43;8.00;89.30
420;DHT22;42600;54.408;13.016;2023-04-25T06:22:10;8.00;89.50
420;DHT22;42600;54.408;13.016;2023-04-25T06:24:37;8.00;89.40
420;DHT22;42600;54.408;13.016;2023-04-25T06:27:03;8.00;89.40
420;DHT22;42600;54.408;13.016;2023-04-25T06:29:30;8.10;89.50
420;DHT22;42600;54.408;13.016;2023-04-25T06:31:58;8.10;89.20
420;DHT22;42600;54.408;13.016;2023-04-25T06:34:25;8.10;88.70
420;DHT22;42600;54.408;13.016;2023-04-25T06:36:51;8.00;88.70
420;DHT22;42600;54.408;13.016;2023-04-25T06:39:18;8.00;88.60
420;DHT22;42600;54.408;13.016;2023-04-25T06:41:45;8.00;88.30
420;DHT22;42600;54.408;13.016;2023-04-25T06:44:11;8.10;88.40
420;DHT22;42600;54.408;13.016;2023-04-25T06:46:38;8.10;87.90
420;DHT22;42600;54.408;13.016;2023-04-25T06:49:06;8.20;87.90
420;DHT22;42600;54.408;13.016;2023-04-25T06:51:32;8.20;87.80
420;DHT22;42600;54.408;13.016;2023-04-25T06:53:59;8.10;87.80
420;DHT22;42600;54.408;13.016;2023-04-25T06:56:26;8.10;87.90
420;DHT22;42600;54.408;13.016;2023-04-25T06:58:54;8.00;88.00
420;DHT22;42600;54.408;13.016;2023-04-25T07:01:21;8.00;88.10
420;DHT22;42600;54.408;13.016;2023-04-25T07:03:48;8.00;88.10
420;DHT22;42600;54.408;13.016;2023-04-25T07:06:15;8.00;87.40
420;DHT22;42600;54.408;13.016;2023-04-25T07:08:42;8.00;87.10
420;DHT22;42600;54.408;13.016;2023-04-25T07:11:09;8.00;86.90
420;DHT22;42600;54.408;13.016;2023-04-25T07:13:36;8.00;86.70
420;DHT22;42600;54.408;13.016;2023-04-25T07:16:03;8.00;86.80
420;DHT22;42600;54.408;13.016;2023-04-25T07:18:30;7.90;87.50
420;DHT22;42600;54.408;13.016;2023-04-25T07:20:56;7.90;87.50
420;DHT22;42600;54.408;13.016;2023-04-25T07:23:24;7.90;86.80
420;DHT22;42600;54.408;13.016;2023-04-25T07:25:51;7.90;86.90
420;DHT22;42600;54.408;13.016;2023-04-25T07:28:18;7.90;87.00
420;DHT22;42600;54.408;13.016;2023-04-25T07:30:44;7.90;86.80
420;DHT22;42600;54.408;13.016;2023-04-25T07:33:11;7.90;87.10
420;DHT22;42600;54.408;13.016;2023-04-25T07:35:37;7.90;87.10
420;DHT22;42600;54.408;13.016;2023-04-25T07:38:04;7.90;87.30
420;DHT22;42600;54.408;13.016;2023-04-25T07:40:33;7.90;87.60
420;DHT22;42600;54.408;13.016;2023-04-25T07:43:00;8.00;87.60
420;DHT22;42600;54.408;13.016;2023-04-25T07:45:27;7.90;87.50
420;DHT22;42600;54.408;13.016;2023-04-25T07:47:54;7.90;86.30
420;DHT22;42600;54.408;13.016;2023-04-25T07:50:21;7.90;86.40
420;DHT22;42600;54.408;13.016;2023-04-25T07:52:47;7.90;86.30
420;DHT22;42600;54.408;13.016;2023-04-25T07:55:14;7.90;86.20
420;DHT22;42600;54.408;13.016;2023-04-25T07:57:42;7.80;86.40
420;DHT22;42600;54.408;13.016;2023-04-25T08:00:09;7.80;85.60
420;DHT22;42600;54.408;13.016;2023-04-25T08:02:37;7.80;85.80
420;DHT22;42600;54.408;13.016;2023-04-25T08:05:04;7.70;85.50
420;DHT22;42600;54.408;13.016;2023-04-25T08:07:33;7.70;85.30
420;DHT22;42600;54.408;13.016;2023-04-25T08:10:00;7.70;85.10
420;DHT22;42600;54.408;13.016;2023-04-25T08:12:26;7.80;85.50
420;DHT22;42600;54.408;13.016;2023-04-25T08:14:54;7.80;85.50
420;DHT22;42600;54.408;13.016;2023-04-25T08:17:21;7.80;85.20
420;DHT22;42600;54.408;13.016;2023-04-25T08:19:47;7.90;85.60
420;DHT22;42600;54.408;13.016;2023-04-25T08:22:14;7.80;84.80
420;DHT22;42600;54.408;13.016;2023-04-25T08:24:41;7.80;84.90
420;DHT22;42600;54.408;13.016;2023-04-25T08:27:08;7.80;85.00
420;DHT22;42600;54.408;13.016;2023-04-25T08:29:35;7.90;85.00
420;DHT22;42600;54.408;13.016;2023-04-25T08:32:03;7.90;84.70
420;DHT22;42600;54.408;13.016;2023-04-25T08:34:29;7.90;84.80
420;DHT22;42600;54.408;13.016;2023-04-25T08:36:56;7.90;84.90
420;DHT22;42600;54.408;13.016;2023-04-25T08:39:22;7.90;84.30
420;DHT22;42600;54.408;13.016;2023-04-25T08:41:50;7.90;84.20
420;DHT22;42600;54.408;13.016;2023-04-25T08:44:18;7.90;83.80
420;DHT22;42600;54.408;13.016;2023-04-25T08:46:47;7.90;83.60
420;DHT22;42600;54.408;13.016;2023-04-25T08:49:17;7.90;83.80
420;DHT22;42600;54.408;13.016;2023-04-25T08:51:45;7.90;83.40
420;DHT22;42600;54.408;13.016;2023-04-25T08:54:14;7.90;83.50
420;DHT22;42600;54.408;13.016;2023-04-25T08:56:44;7.90;83.30
420;DHT22;42600;54.408;13.016;2023-04-25T08:59:11;7.90;83.10
420;DHT22;42600;54.408;13.016;2023-04-25T09:01:39;7.90;82.90
420;DHT22;42600;54.408;13.016;2023-04-25T09:04:05;7.90;83.10
420;DHT22;42600;54.408;13.016;2023-04-25T09:06:34;7.90;82.40
420;DHT22;42600;54.408;13.016;2023-04-25T09:09:03;7.90;81.20
420;DHT22;42600;54.408;13.016;2023-04-25T09:11:31;7.90;81.60
420;DHT22;42600;54.408;13.016;2023-04-25T09:14:13;7.90;81.20
420;DHT22;42600;54.408;13.016;2023-04-25T09:16:59;7.90;80.70
420;DHT22;42600;54.408;13.016;2023-04-25T09:19:27;8.00;80.60
420;DHT22;42600;54.408;13.016;2023-04-25T09:21:57;8.00;79.40
420;DHT22;42600;54.408;13.016;2023-04-25T09:24:31;8.10;79.60
420;DHT22;42600;54.408;13.016;2023-04-25T09:26:58;8.10;78.10
420;DHT22;42600;54.408;13.016;2023-04-25T09:29:29;8.20;77.60
420;DHT22;42600;54.408;13.016;2023-04-25T09:32:11;8.20;77.10
420;DHT22;42600;54.408;13.016;2023-04-25T09:34:39;8.20;76.20
420;DHT22;42600;54.408;13.016;2023-04-25T09:37:08;8.20;76.70
420;DHT22;42600;54.408;13.016;2023-04-25T09:39:35;8.30;77.50
420;DHT22;42600;54.408;13.016;2023-04-25T09:42:03;8.30;77.60
420;DHT22;42600;54.408;13.016;2023-04-25T09:44:29;8.30;77.50
420;DHT22;42600;54.408;13.016;2023-04-25T09:46:56;8.30;77.40
420;DHT22;42600;54.408;13.016;2023-04-25T09:49:25;8.40;77.70
420;DHT22;42600;54.408;13.016;2023-04-25T09:51:55;8.60;76.60
420;DHT22;42600;54.408;13.016;2023-04-25T09:54:24;8.60;75.90
420;DHT22;42600;54.408;13.016;2023-04-25T09:56:52;8.60;75.80
420;DHT22;42600;54.408;13.016;2023-04-25T09:59:20;8.60;76.20
420;DHT22;42600;54.408;13.016;2023-04-25T10:01:48;8.60;76.20
420;DHT22;42600;54.408;13.016;2023-04-25T10:04:18;8.50;75.70
420;DHT22;42600;54.408;13.016;2023-04-25T10:06:45;8.50;75.50
420;DHT22;42600;54.408;13.016;2023-04-25T10:09:15;8.50;75.20
420;DHT22;42600;54.408;13.016;2023-04-25T10:11:44;8.50;75.30
420;DHT22;42600;54.408;13.016;2023-04-25T10:14:13;8.60;75.70
420;DHT22;42600;54.408;13.016;2023-04-25T10:16:41;8.60;75.60
420;DHT22;42600;54.408;13.016;2023-04-25T10:19:09;8.70;75.70
420;DHT22;42600;54.408;13.016;2023-04-25T10:21:37;8.70;75.90
420;DHT22;42600;54.408;13.016;2023-04-25T10:24:07;8.80;76.50
420;DHT22;42600;54.408;13.016;2023-04-25T10:26:34;8.70;76.30
420;DHT22;42600;54.408;13.016;2023-04-25T10:29:03;8.70;75.90
420;DHT22;42600;54.408;13.016;2023-04-25T10:31:30;8.70;76.40
420;DHT22;42600;54.408;13.016;2023-04-25T10:33:57;8.70;76.40
420;DHT22;42600;54.408;13.016;2023-04-25T10:36:24;8.60;76.80
420;DHT22;42600;54.408;13.016;2023-04-25T10:38:52;8.60;76.70
420;DHT22;42600;54.408;13.016;2023-04-25T10:41:20;8.60;77.00
420;DHT22;42600;54.408;13.016;2023-04-25T10:43:49;8.50;77.50
420;DHT22;42600;54.408;13.016;2023-04-25T10:46:19;8.40;77.10
420;DHT22;42600;54.408;13.016;2023-04-25T10:48:47;8.40;77.60
420;DHT22;42600;54.408;13.016;2023-04-25T10:51:22;8.40;77.80
420;DHT22;42600;54.408;13.016;2023-04-25T10:54:00;8.50;78.30
420;DHT22;42600;54.408;13.016;2023-04-25T10:56:28;8.50;78.50
420;DHT22;42600;54.408;13.016;2023-04-25T10:59:09;8.50;79.10
420;DHT22;42600;54.408;13.016;2023-04-25T11:01:39;8.40;78.80
420;DHT22;42600;54.408;13.016;2023-04-25T11:04:06;8.40;79.20
420;DHT22;42600;54.408;13.016;2023-04-25T11:06:55;8.40;79.80
420;DHT22;42600;54.408;13.016;2023-04-25T11:09:24;8.40;79.30
420;DHT22;42600;54.408;13.016;2023-04-25T11:11:54;8.50;79.00
420;DHT22;42600;54.408;13.016;2023-04-25T11:14:21;8.40;79.00
420;DHT22;42600;54.408;13.016;2023-04-25T11:16:53;8.50;78.90
420;DHT22;42600;54.408;13.016;2023-04-25T11:19:21;8.50;79.10
420;DHT22;42600;54.408;13.016;2023-04-25T11:21:47;8.60;79.50
420;DHT22;42600;54.408;13.016;2023-04-25T11:24:14;8.70;79.60
420;DHT22;42600;54.408;13.016;2023-04-25T11:26:42;8.70;79.00
420;DHT22;42600;54.408;13.016;2023-04-25T11:29:08;8.80;78.20
420;DHT22;42600;54.408;13.016;2023-04-25T11:31:35;8.90;76.10
420;DHT22;42600;54.408;13.016;2023-04-25T11:34:03;8.90;75.40
420;DHT22;42600;54.408;13.016;2023-04-25T11:36:30;8.90;74.20
420;DHT22;42600;54.408;13.016;2023-04-25T11:38:57;8.90;74.30
420;DHT22;42600;54.408;13.016;2023-04-25T11:41:23;8.90;74.50
420;DHT22;42600;54.408;13.016;2023-04-25T11:43:51;8.90;75.20
420;DHT22;42600;54.408;13.016;2023-04-25T11:46:19;8.90;74.80
420;DHT22;42600;54.408;13.016;2023-04-25T11:48:46;8.90;74.20
420;DHT22;42600;54.408;13.016;2023-04-25T11:51:14;8.90;74.50
420;DHT22;42600;54.408;13.016;2023-04-25T11:53:41;8.90;75.40
420;DHT22;42600;54.408;13.016;2023-04-25T11:56:09;8.90;75.50
420;DHT22;42600;54.408;13.016;2023-04-25T11:58:55;8.90;75.00
420;DHT22;42600;54.408;13.016;2023-04-25T12:01:26;8.80;74.40
420;DHT22;42600;54.408;13.016;2023-04-25T12:03:53;8.90;73.90
420;DHT22;42600;54.408;13.016;2023-04-25T12:06:21;8.90;73.40
420;DHT22;42600;54.408;13.016;2023-04-25T12:09:01;8.90;73.10
420;DHT22;42600;54.408;13.016;2023-04-25T12:11:30;8.90;74.20
420;DHT22;42600;54.408;13.016;2023-04-25T12:14:02;8.90;75.00
420;DHT22;42600;54.408;13.016;2023-04-25T12:16:29;9.00;75.60
420;DHT22;42600;54.408;13.016;2023-04-25T12:18:56;9.10;74.10
420;DHT22;42600;54.408;13.016;2023-04-25T12:21:29;9.20;74.00
420;DHT22;42600;54.408;13.016;2023-04-25T12:24:12;9.20;73.70
420;DHT22;42600;54.408;13.016;2023-04-25T12:26:53;9.20;73.10
420;DHT22;42600;54.408;13.016;2023-04-25T12:29:21;9.10;73.70
420;DHT22;42600;54.408;13.016;2023-04-25T12:31:48;9.10;73.70
420;DHT22;42600;54.408;13.016;2023-04-25T12:34:15;9.10;73.70
420;DHT22;42600;54.408;13.016;2023-04-25T12:36:43;9.10;73.40
420;DHT22;42600;54.408;13.016;2023-04-25T12:39:14;9.10;73.30
420;DHT22;42600;54.408;13.016;2023-04-25T12:41:41;9.10;73.40
420;DHT22;42600;54.408;13.016;2023-04-25T12:44:08;9.10;73.60
420;DHT22;42600;54.408;13.016;2023-04-25T12:46:35;9.10;74.30
420;DHT22;42600;54.408;13.016;2023-04-25T12:49:02;9.10;74.50
420;DHT22;42600;54.408;13.016;2023-04-25T12:51:29;9.00;74.60
420;DHT22;42600;54.408;13.016;2023-04-25T12:53:59;9.00;75.00
420;DHT22;42600;54.408;13.016;2023-04-25T12:56:26;9.10;75.50
420;DHT22;42600;54.408;13.016;2023-04-25T12:58:52;9.10;75.90
420;DHT22;42600;54.408;13.016;2023-04-25T13:01:19;9.10;76.20
420;DHT22;42600;54.408;13.016;2023-04-25T13:03:46;9.20;76.30
420;DHT22;42600;54.408;13.016;2023-04-25T13:06:13;9.30;76.20
420;DHT22;42600;54.408;13.016;2023-04-25T13:08:40;9.40;75.70
420;DHT22;42600;54.408;13.016;2023-04-25T13:11:09;9.50;74.90
420;DHT22;42600;54.408;13.016;2023-04-25T13:13:36;9.50;74.00
420;DHT22;42600;54.408;13.016;2023-04-25T13:16:05;9.50;74.00
420;DHT22;42600;54.408;13.016;2023-04-25T13:18:32;9.50;74.50
420;DHT22;42600;54.408;13.016;2023-04-25T13:20:59;9.60;75.20
420;DHT22;42600;54.408;13.016;2023-04-25T13:23:28;9.70;74.80
420;DHT22;42600;54.408;13.016;2023-04-25T13:25:55;9.70;74.90
420;DHT22;42600;54.408;13.016;2023-04-25T13:28:24;9.80;74.80
420;DHT22;42600;54.408;13.016;2023-04-25T13:30:51;9.90;74.60
420;DHT22;42600;54.408;13.016;2023-04-25T13:33:18;9.80;73.60
420;DHT22;42600;54.408;13.016;2023-04-25T13:35:46;9.80;73.60
420;DHT22;42600;54.408;13.016;2023-04-25T13:38:23;9.90;75.20
420;DHT22;42600;54.408;13.016;2023-04-25T13:40:50;10.00;75.30
420;DHT22;42600;54.408;13.016;2023-04-25T13:43:18;10.00;74.70
420;DHT22;42600;54.408;13.016;2023-04-25T13:45:46;10.00;74.20
420;DHT22;42600;54.408;13.016;2023-04-25T13:48:13;10.00;73.30
420;DHT22;42600;54.408;13.016;2023-04-25T13:50:39;10.00;72.40
420;DHT22;42600;54.408;13.016;2023-04-25T13:53:06;10.10;72.50
420;DHT22;42600;54.408;13.016;2023-04-25T13:55:34;10.10;72.10
420;DHT22;42600;54.408;13.016;2023-04-25T13:58:00;10.20;72.70
420;DHT22;42600;54.408;13.016;2023-04-25T14:00:33;10.10;71.80
420;DHT22;42600;54.408;13.016;2023-04-25T14:03:01;10.10;72.20
420;DHT22;42600;54.408;13.016;2023-04-25T14:05:30;10.10;72.40
420;DHT22;42600;54.408;13.016;2023-04-25T14:07:56;10.00;72.70
420;DHT22;42600;54.408;13.016;2023-04-25T14:10:23;10.00;73.30
420;DHT22;42600;54.408;13.016;2023-04-25T14:12:50;9.90;73.80
420;DHT22;42600;54.408;13.016;2023-04-25T14:15:16;9.90;73.80
420;DHT22;42600;54.408;13.016;2023-04-25T14:17:43;9.90;74.50
420;DHT22;42600;54.408;13.016;2023-04-25T14:20:12;9.90;75.00
420;DHT22;42600;54.408;13.016;2023-04-25T14:22:39;10.00;75.50
420;DHT22;42600;54.408;13.016;2023-04-25T14:25:09;9.90;75.20
420;DHT22;42600;54.408;13.016;2023-04-25T14:27:35;9.80;75.30
420;DHT22;42600;54.408;13.016;2023-04-25T14:30:02;9.90;75.80
420;DHT22;42600;54.408;13.016;2023-04-25T14:32:30;9.90;75.50
420;DHT22;42600;54.408;13.016;2023-04-25T14:34:57;9.90;74.70
420;DHT22;42600;54.408;13.016;2023-04-25T14:37:25;9.90;74.80
420;DHT22;42600;54.408;13.016;2023-04-25T14:39:52;9.90;74.50
420;DHT22;42600;54.408;13.016;2023-04-25T14:42:18;10.00;75.30
420;DHT22;42600;54.408;13.016;2023-04-25T14:44:45;10.00;75.10
420;DHT22;42600;54.408;13.016;2023-04-25T14:47:12;10.00;74.40
420;DHT22;42600;54.408;13.016;2023-04-25T14:49:38;10.00;74.70
420;DHT22;42600;54.408;13.016;2023-04-25T14:52:05;10.00;74.00
420;DHT22;42600;54.408;13.016;2023-04-25T14:54:33;10.00;74.10
420;DHT22;42600;54.408;13.016;2023-04-25T14:56:59;10.00;73.90
420;DHT22;42600;54.408;13.016;2023-04-25T14:59:26;10.00;74.20
420;DHT22;42600;54.408;13.016;2023-04-25T15:01:53;9.90;73.80
420;DHT22;42600;54.408;13.016;2023-04-25T15:04:20;10.00;74.80
420;DHT22;42600;54.408;13.016;2023-04-25T15:06:47;10.00;74.50
420;DHT22;42600;54.408;13.016;2023-04-25T15:09:13;10.00;74.40
420;DHT22;42600;54.408;13.016;2023-04-25T15:11:42;10.00;74.40
420;DHT22;42600;54.408;13.016;2023-04-25T15:14:09;9.90;75.40
420;DHT22;42600;54.408;13.016;2023-04-25T15:16:36;9.90;76.20
420;DHT22;42600;54.408;13.016;2023-04-25T15:19:02;9.90;76.10
420;DHT22;42600;54.408;13.016;2023-04-25T15:21:29;9.90;76.50
420;DHT22;42600;54.408;13.016;2023-04-25T15:23:56;10.00;76.90
420;DHT22;42600;54.408;13.016;2023-04-25T15:26:23;10.00;77.00
420;DHT22;42600;54.408;13.016;2023-04-25T15:28:51;10.00;76.90
420;DHT22;42600;54.408;13.016;2023-04-25T15:31:18;10.00;76.90
420;DHT22;42600;54.408;13.016;2023-04-25T15:33:45;9.90;76.50
420;DHT22;42600;54.408;13.016;2023-04-25T15:36:11;9.90;76.30
420;DHT22;42600;54.408;13.016;2023-04-25T15:38:38;10.00;77.40
420;DHT22;42600;54.408;13.016;2023-04-25T15:41:05;10.00;77.30
420;DHT22;42600;54.408;13.016;2023-04-25T15:43:32;10.00;76.50
420;DHT22;42600;54.408;13.016;2023-04-25T15:46:02;9.90;76.20
420;DHT22;42600;54.408;13.016;2023-04-25T15:48:29;9.90;76.30
420;DHT22;42600;54.408;13.016;2023-04-25T15:50:56;9.80;76.50
420;DHT22;42600;54.408;13.016;2023-04-25T15:53:23;9.80;77.00
420;DHT22;42600;54.408;13.016;2023-04-25T15:55:50;9.80;76.60
420;DHT22;42600;54.408;13.016;2023-04-25T15:58:16;9.80;76.50
420;DHT22;42600;54.408;13.016;2023-04-25T16:00:43;9.90;76.80
420;DHT22;42600;54.408;13.016;2023-04-25T16:03:14;9.90;76.70